createdAt,value
2018-11-05T00:00:19.787Z,11.60
2018-11-05T00:02:50.308Z,12.70
2018-11-05T00:05:19.227Z,11.53
2018-11-05T00:07:47.951Z,12.10
2018-11-05T00:10:16.648Z,11.17
2018-11-05T00:12:45.336Z,12.03
2018-11-05T00:15:14.012Z,11.47
2018-11-05T00:17:42.679Z,11.97
2018-11-05T00:20:11.789Z,10.33
2018-11-05T00:22:40.499Z,11.00
2018-11-05T00:25:11.215Z,10.37
2018-11-05T00:27:40.433Z,10.43
2018-11-05T00:30:10.672Z,9.50
2018-11-05T00:32:39.619Z,10.33
2018-11-05T00:35:08.300Z,10.00
2018-11-05T00:37:37.008Z,9.30
2018-11-05T00:40:07.941Z,9.73
2018-11-05T00:42:36.784Z,9.43
2018-11-05T00:45:06.853Z,9.17
2018-11-05T00:47:35.553Z,9.43
2018-11-05T00:50:05.640Z,9.10
2018-11-05T00:52:34.332Z,9.60
2018-11-05T00:55:03.095Z,9.40
2018-11-05T00:57:31.872Z,8.17
2018-11-05T01:00:00.915Z,8.23
2018-11-05T01:02:29.724Z,7.60
2018-11-05T01:04:58.502Z,8.77
2018-11-05T01:07:27.193Z,8.83
2018-11-05T01:09:55.837Z,9.07
2018-11-05T01:12:24.485Z,8.80
2018-11-05T01:14:53.172Z,8.60
2018-11-05T01:17:21.825Z,8.60
2018-11-05T01:19:50.492Z,8.13
2018-11-05T01:22:19.168Z,8.07
2018-11-05T01:24:47.880Z,8.10
2018-11-05T01:27:16.560Z,7.67
2018-11-05T01:29:45.247Z,8.03
2018-11-05T01:32:14.000Z,9.17
2018-11-05T01:34:42.660Z,7.80
2018-11-05T01:37:11.390Z,8.23
2018-11-05T01:39:40.065Z,8.07
2018-11-05T01:42:08.760Z,8.60
2018-11-05T01:44:37.472Z,8.13
2018-11-05T01:47:06.277Z,8.60
2018-11-05T01:49:34.943Z,7.60
2018-11-05T01:52:03.760Z,7.47
2018-11-05T01:54:32.459Z,7.50
2018-11-05T01:57:01.132Z,7.90
2018-11-05T01:59:29.842Z,7.83
2018-11-05T02:01:58.545Z,7.50
2018-11-05T02:04:28.070Z,7.37
2018-11-05T02:06:56.751Z,7.93
2018-11-05T02:09:25.505Z,8.43
2018-11-05T02:11:54.180Z,8.47
2018-11-05T02:14:22.912Z,7.87
2018-11-05T02:16:51.639Z,7.83
2018-11-05T02:19:20.348Z,7.30
2018-11-05T02:21:49.111Z,9.00
2018-11-05T02:24:17.768Z,8.60
2018-11-05T02:26:46.442Z,7.50
2018-11-05T02:29:15.157Z,8.17
2018-11-05T02:31:43.824Z,7.00
2018-11-05T02:34:12.500Z,8.77
2018-11-05T02:36:41.176Z,8.00
2018-11-05T02:39:10.401Z,8.70
2018-11-05T02:41:39.128Z,8.17
2018-11-05T02:44:07.821Z,9.70
2018-11-05T02:46:36.512Z,8.73
2018-11-05T02:49:05.197Z,8.70
2018-11-05T02:51:33.889Z,8.47
2018-11-05T02:54:02.638Z,7.40
2018-11-05T02:56:31.394Z,8.23
2018-11-05T02:59:00.109Z,8.60
2018-11-05T03:01:28.825Z,7.77
2018-11-05T03:03:57.524Z,8.50
2018-11-05T03:06:26.205Z,7.87
2018-11-05T03:08:54.883Z,8.43
2018-11-05T03:11:23.569Z,8.13
2018-11-05T03:13:52.232Z,7.60
2018-11-05T03:16:20.907Z,8.00
2018-11-05T03:18:49.585Z,8.10
2018-11-05T03:21:18.236Z,7.63
2018-11-05T03:23:46.910Z,8.33
2018-11-05T03:26:15.585Z,7.67
2018-11-05T03:28:44.262Z,6.73
2018-11-05T03:31:12.920Z,7.93
2018-11-05T03:33:41.608Z,7.50
2018-11-05T03:36:10.233Z,7.43
2018-11-05T03:38:38.889Z,7.13
2018-11-05T03:41:07.572Z,7.13
2018-11-05T03:43:36.211Z,7.97
2018-11-05T03:46:04.994Z,8.30
2018-11-05T03:48:33.640Z,8.17
2018-11-05T03:51:02.285Z,8.23
2018-11-05T03:53:30.932Z,7.33
2018-11-05T03:55:59.660Z,8.23
2018-11-05T03:58:28.326Z,8.53
2018-11-05T04:00:56.978Z,9.40
2018-11-05T04:03:25.710Z,9.00
2018-11-05T04:05:54.352Z,8.13
2018-11-05T04:08:23.051Z,9.77
2018-11-05T04:10:51.677Z,8.37
2018-11-05T04:13:20.312Z,8.83
2018-11-05T04:15:48.993Z,8.87
2018-11-05T04:18:17.637Z,9.30
2018-11-05T04:20:46.273Z,9.67
2018-11-05T04:23:14.948Z,9.23
2018-11-05T04:25:43.579Z,8.63
2018-11-05T04:28:12.205Z,10.23
2018-11-05T04:30:40.884Z,8.80
2018-11-05T04:33:09.571Z,9.70
2018-11-05T04:35:38.236Z,9.43
2018-11-05T04:38:06.881Z,10.60
2018-11-05T04:40:35.513Z,10.60
2018-11-05T04:43:04.176Z,9.53
2018-11-05T04:45:32.803Z,9.30
2018-11-05T04:48:01.455Z,8.53
2018-11-05T04:50:30.093Z,8.07
2018-11-05T04:52:58.769Z,8.63
2018-11-05T04:55:27.380Z,7.83
2018-11-05T04:57:56.004Z,9.43
2018-11-05T05:00:24.661Z,9.33
2018-11-05T05:02:53.310Z,8.00
2018-11-05T05:05:21.962Z,7.80
2018-11-05T05:07:50.629Z,8.77
2018-11-05T05:10:19.293Z,8.20
2018-11-05T05:12:48.006Z,8.13
2018-11-05T05:15:16.648Z,8.67
2018-11-05T05:17:45.272Z,7.87
2018-11-05T05:20:15.068Z,8.17
2018-11-05T05:22:44.071Z,8.37
2018-11-05T05:25:12.867Z,8.17
2018-11-05T05:27:41.548Z,8.47
2018-11-05T05:30:14.476Z,7.83
2018-11-05T05:32:43.493Z,8.30
2018-11-05T05:35:12.138Z,7.60
2018-11-05T05:37:41.432Z,8.43
2018-11-05T05:40:10.218Z,8.10
2018-11-05T05:42:39.624Z,8.57
2018-11-05T05:45:09.501Z,7.90
2018-11-05T05:47:38.405Z,7.07
2018-11-05T05:50:11.795Z,7.67
2018-11-05T05:52:41.264Z,7.20
2018-11-05T05:55:10.017Z,7.20
2018-11-05T05:57:38.752Z,7.30
2018-11-05T06:00:09.807Z,6.90
2018-11-05T06:02:38.783Z,7.33
2018-11-05T06:05:08.701Z,7.10
2018-11-05T06:07:37.552Z,7.17
2018-11-05T06:10:06.393Z,8.03
2018-11-05T06:12:35.069Z,7.30
2018-11-05T06:15:03.900Z,8.07
2018-11-05T06:17:32.520Z,7.80
2018-11-05T06:20:01.132Z,8.33
2018-11-05T06:22:29.731Z,8.13
2018-11-05T06:24:58.899Z,7.90
2018-11-05T06:27:27.509Z,9.93
2018-11-05T06:29:56.143Z,8.70
2018-11-05T06:32:24.785Z,8.00
2018-11-05T06:34:53.384Z,7.50
2018-11-05T06:37:21.983Z,7.77
2018-11-05T06:39:50.576Z,8.10
2018-11-05T06:42:19.180Z,7.47
2018-11-05T06:44:47.836Z,7.67
2018-11-05T06:47:16.472Z,7.60
2018-11-05T06:49:45.108Z,7.43
2018-11-05T06:52:13.712Z,7.87
2018-11-05T06:54:42.302Z,8.00
2018-11-05T06:57:10.912Z,7.77
2018-11-05T06:59:39.512Z,9.10
2018-11-05T07:02:08.164Z,8.27
2018-11-05T07:04:37.187Z,7.87
2018-11-05T07:07:06.239Z,8.60
2018-11-05T07:09:34.888Z,8.30
2018-11-05T07:12:03.536Z,8.00
2018-11-05T07:14:32.144Z,9.03
2018-11-05T07:17:00.752Z,7.20
2018-11-05T07:19:29.436Z,7.50
2018-11-05T07:21:58.012Z,8.30
2018-11-05T07:24:26.607Z,7.60
2018-11-05T07:26:55.241Z,8.83
2018-11-05T07:29:23.903Z,7.67
2018-11-05T07:31:52.560Z,7.90
2018-11-05T07:34:21.251Z,8.10
2018-11-05T07:36:49.921Z,8.47
2018-11-05T07:39:18.519Z,7.70
2018-11-05T07:41:47.112Z,8.57
2018-11-05T07:44:15.720Z,8.30
2018-11-05T07:46:44.305Z,8.67
2018-11-05T07:49:12.912Z,8.47
2018-11-05T07:51:41.536Z,8.20
2018-11-05T07:54:10.144Z,8.17
2018-11-05T07:56:38.764Z,8.13
2018-11-05T07:59:07.423Z,8.73
2018-11-05T08:01:36.024Z,8.40
2018-11-05T08:04:04.744Z,8.33
2018-11-05T08:06:33.344Z,7.83
2018-11-05T08:09:01.972Z,8.70
2018-11-05T08:11:30.623Z,8.20
2018-11-05T08:13:59.273Z,8.17
2018-11-05T08:16:27.953Z,9.77
2018-11-05T08:18:56.544Z,10.20
2018-11-05T08:21:25.257Z,9.87
2018-11-05T08:23:54.164Z,8.67
2018-11-05T08:26:22.857Z,8.50
2018-11-05T08:28:51.573Z,7.70
2018-11-05T08:31:20.355Z,8.03
2018-11-05T08:33:49.900Z,8.00
2018-11-05T08:36:18.544Z,8.53
2018-11-05T08:38:47.384Z,7.23
2018-11-05T08:41:16.016Z,8.33
2018-11-05T08:43:44.908Z,7.87
2018-11-05T08:46:13.552Z,7.83
2018-11-05T08:48:42.181Z,7.43
2018-11-05T08:51:11.031Z,8.07
2018-11-05T08:53:39.531Z,8.20
2018-11-05T08:56:08.169Z,7.50
2018-11-05T08:58:36.929Z,8.03
2018-11-05T09:01:11.185Z,8.07
2018-11-05T09:03:40.038Z,8.70
2018-11-05T09:06:08.840Z,9.20
2018-11-05T09:08:37.496Z,9.90
2018-11-05T09:11:06.710Z,10.63
2018-11-05T09:13:35.969Z,9.10
2018-11-05T09:16:05.330Z,10.57
2018-11-05T09:18:33.955Z,8.33
2018-11-05T09:21:02.648Z,7.03
2018-11-05T09:23:31.324Z,8.70
2018-11-05T09:25:59.997Z,8.53
2018-11-05T09:28:28.922Z,5.13
2018-11-05T09:30:57.539Z,3.40
2018-11-05T09:33:26.206Z,3.87
2018-11-05T09:35:54.885Z,2.77
2018-11-05T09:38:23.545Z,1.97
2018-11-05T09:40:52.241Z,1.10
2018-11-05T09:43:20.862Z,0.97
2018-11-05T09:45:49.492Z,0.60
2018-11-05T09:48:18.121Z,0.60
2018-11-05T09:50:46.815Z,0.50
2018-11-05T09:53:15.452Z,0.80
2018-11-05T09:55:44.170Z,0.90
2018-11-05T09:58:12.869Z,0.50
2018-11-05T10:00:41.537Z,0.80
2018-11-05T10:03:16.048Z,0.40
2018-11-05T10:05:44.989Z,0.40
2018-11-05T10:08:14.148Z,0.30
2018-11-05T10:10:42.868Z,0.70
2018-11-05T10:13:11.492Z,0.60
2018-11-05T10:15:40.164Z,0.60
2018-11-05T10:18:08.795Z,1.00
2018-11-05T10:20:37.416Z,0.90
2018-11-05T10:23:06.107Z,1.67
2018-11-05T10:25:34.751Z,1.83
2018-11-05T10:28:05.892Z,1.60
2018-11-05T10:30:34.559Z,1.53
2018-11-05T10:33:03.287Z,1.90
2018-11-05T10:35:37.240Z,1.80
2018-11-05T10:38:06.012Z,1.70
2018-11-05T10:40:34.720Z,2.07
2018-11-05T10:43:03.433Z,2.43
2018-11-05T10:45:32.105Z,2.20
2018-11-05T10:48:00.724Z,2.47
2018-11-05T10:50:29.618Z,1.87
2018-11-05T10:52:58.053Z,2.40
2018-11-05T10:55:26.749Z,2.83
2018-11-05T10:57:55.387Z,2.33
2018-11-05T11:00:29.441Z,3.20
2018-11-05T11:03:03.545Z,1.77
2018-11-05T11:05:32.528Z,1.83
2018-11-05T11:08:01.872Z,1.50
2018-11-05T11:10:31.262Z,1.50
2018-11-05T11:12:59.939Z,1.70
2018-11-05T11:15:28.580Z,1.97
2018-11-05T11:17:57.608Z,2.50
2018-11-05T11:20:26.261Z,1.97
2018-11-05T11:22:54.885Z,2.00
2018-11-05T11:25:23.533Z,2.07
2018-11-05T11:27:52.315Z,1.50
2018-11-05T11:30:20.904Z,1.53
2018-11-05T11:32:51.484Z,1.70
2018-11-05T11:35:20.132Z,2.20
2018-11-05T11:37:48.760Z,1.70
2018-11-05T11:40:18.749Z,2.23
2018-11-05T11:42:47.960Z,1.70
2018-11-05T11:45:17.764Z,2.40
2018-11-05T11:47:46.405Z,2.97
2018-11-05T11:50:15.967Z,2.70
2018-11-05T11:52:44.711Z,1.67
2018-11-05T11:55:16.140Z,1.80
2018-11-05T11:57:44.821Z,2.03
2018-11-05T12:00:18.458Z,1.93
2018-11-05T12:02:47.784Z,2.67
2018-11-05T12:05:16.593Z,1.50
2018-11-05T12:07:45.152Z,1.50
2018-11-05T12:10:17.776Z,1.77
2018-11-05T12:12:46.564Z,1.43
2018-11-05T12:15:16.689Z,1.50
2018-11-05T12:17:46.441Z,2.60
2018-11-05T12:20:16.600Z,1.93
2018-11-05T12:22:45.990Z,2.00
2018-11-05T12:25:15.200Z,1.97
2018-11-05T12:27:43.954Z,2.10
2018-11-05T12:30:14.943Z,2.67
2018-11-05T12:32:44.321Z,2.20
2018-11-05T12:35:13.244Z,2.53
2018-11-05T12:37:43.116Z,2.53
2018-11-05T12:40:13.420Z,1.47
2018-11-05T12:42:42.933Z,2.37
2018-11-05T12:45:11.722Z,1.97
2018-11-05T12:47:40.360Z,1.20
2018-11-05T12:50:12.966Z,1.13
2018-11-05T12:52:42.088Z,1.60
2018-11-05T12:55:11.075Z,1.30
2018-11-05T12:57:39.730Z,1.67
2018-11-05T13:00:11.416Z,1.57
2018-11-05T13:02:40.085Z,1.70
2018-11-05T13:05:09.641Z,2.60
2018-11-05T13:07:38.443Z,2.37
2018-11-05T13:10:09.420Z,2.20
2018-11-05T13:12:38.118Z,2.03
2018-11-05T13:15:07.402Z,2.30
2018-11-05T13:17:36.305Z,2.43
2018-11-05T13:20:05.393Z,3.03
2018-11-05T13:22:34.109Z,2.83
2018-11-05T13:25:02.746Z,2.30
2018-11-05T13:27:31.369Z,2.97
2018-11-05T13:30:00.053Z,1.93
2018-11-05T13:32:28.709Z,1.67
2018-11-05T13:34:57.349Z,2.13
2018-11-05T13:37:26.149Z,1.80
2018-11-05T13:39:54.668Z,2.23
2018-11-05T13:42:23.298Z,2.47
2018-11-05T13:44:52.073Z,1.80
2018-11-05T13:47:21.342Z,1.77
2018-11-05T13:49:49.533Z,1.90
2018-11-05T13:52:18.214Z,1.73
2018-11-05T13:54:46.977Z,2.70
2018-11-05T13:57:15.344Z,2.33
2018-11-05T13:59:44.015Z,2.60
2018-11-05T14:02:12.773Z,2.20
2018-11-05T14:04:41.420Z,2.50
2018-11-05T14:07:10.086Z,1.63
2018-11-05T14:09:38.736Z,2.13
2018-11-05T14:12:07.541Z,2.03
2018-11-05T14:14:36.193Z,2.40
2018-11-05T14:17:05.270Z,2.20
2018-11-05T14:19:33.925Z,2.30
2018-11-05T14:22:02.597Z,2.33
2018-11-05T14:24:31.244Z,1.87
2018-11-05T14:26:59.892Z,1.40
2018-11-05T14:29:28.742Z,1.80
2018-11-05T14:31:57.265Z,2.27
2018-11-05T14:34:25.932Z,0.90
2018-11-05T14:36:54.756Z,1.43
2018-11-05T14:39:23.241Z,1.37
2018-11-05T14:41:51.915Z,1.13
2018-11-05T14:44:20.584Z,1.53
2018-11-05T14:46:49.306Z,1.57
2018-11-05T14:49:17.925Z,1.30
2018-11-05T14:51:46.621Z,1.43
2018-11-05T14:54:15.264Z,1.40
2018-11-05T14:56:43.914Z,1.40
2018-11-05T14:59:12.556Z,1.47
2018-11-05T15:01:41.312Z,1.20
2018-11-05T15:04:09.948Z,1.47
2018-11-05T15:06:38.573Z,1.23
2018-11-05T15:09:09.241Z,1.90
2018-11-05T15:11:37.910Z,1.20
2018-11-05T15:14:06.575Z,1.93
2018-11-05T15:16:35.212Z,1.57
2018-11-05T15:19:04.278Z,1.77
2018-11-05T15:21:32.611Z,1.90
2018-11-05T15:24:01.257Z,1.10
2018-11-05T15:26:30.214Z,1.60
2018-11-05T15:28:58.859Z,1.70
2018-11-05T15:31:27.525Z,1.57
2018-11-05T15:33:56.245Z,1.37
2018-11-05T15:36:24.842Z,1.30
2018-11-05T15:38:53.493Z,1.50
2018-11-05T15:41:22.096Z,0.93
2018-11-05T15:43:50.749Z,1.03
2018-11-05T15:46:19.400Z,1.10
2018-11-05T15:48:48.256Z,1.03
2018-11-05T15:51:17.022Z,1.13
2018-11-05T15:53:45.647Z,1.40
2018-11-05T15:56:14.297Z,1.73
2018-11-05T15:58:42.966Z,1.83
2018-11-05T16:01:11.603Z,1.20
2018-11-05T16:03:40.296Z,1.30
2018-11-05T16:06:08.961Z,1.10
2018-11-05T16:08:37.582Z,2.37
2018-11-05T16:11:06.282Z,1.47
2018-11-05T16:13:34.907Z,2.00
2018-11-05T16:16:03.565Z,2.00
2018-11-05T16:18:32.199Z,1.57
2018-11-05T16:21:00.855Z,1.50
2018-11-05T16:23:29.496Z,1.93
2018-11-05T16:25:58.145Z,2.00
2018-11-05T16:28:26.798Z,2.00
2018-11-05T16:30:55.436Z,1.67
2018-11-05T16:33:24.056Z,1.80
2018-11-05T16:35:52.725Z,1.73
2018-11-05T16:38:21.427Z,2.03
2018-11-05T16:40:50.081Z,1.73
2018-11-05T16:43:18.813Z,2.17
2018-11-05T16:45:47.455Z,2.57
2018-11-05T16:48:16.090Z,1.70
2018-11-05T16:50:44.752Z,2.53
2018-11-05T16:53:13.396Z,1.63
2018-11-05T16:55:42.056Z,4.03
2018-11-05T16:58:10.836Z,2.20
2018-11-05T17:00:39.426Z,3.13
2018-11-05T17:03:08.165Z,2.47
2018-11-05T17:05:36.777Z,2.43
2018-11-05T17:08:05.768Z,2.03
2018-11-05T17:10:34.416Z,1.70
2018-11-05T17:13:03.047Z,1.53
2018-11-05T17:15:31.712Z,2.07
2018-11-05T17:18:00.352Z,1.83
2018-11-05T17:20:29.024Z,2.03
2018-11-05T17:22:57.664Z,1.33
2018-11-05T17:25:26.301Z,1.40
2018-11-05T17:27:54.936Z,1.30
2018-11-05T17:30:23.616Z,1.40
2018-11-05T17:32:52.256Z,1.47
2018-11-05T17:35:20.887Z,1.73
2018-11-05T17:37:50.349Z,1.30
2018-11-05T17:40:20.511Z,1.20
2018-11-05T17:42:49.612Z,1.60
2018-11-05T17:45:18.994Z,1.73
2018-11-05T17:47:48.104Z,1.43
2018-11-05T17:50:17.989Z,1.50
2018-11-05T17:52:46.669Z,2.43
2018-11-05T17:55:15.541Z,2.80
2018-11-05T17:57:45.268Z,1.10
2018-11-05T18:00:15.727Z,1.20
2018-11-05T18:02:44.469Z,1.00
2018-11-05T18:05:13.298Z,1.10
2018-11-05T18:07:42.092Z,0.73
2018-11-05T18:10:10.785Z,1.27
2018-11-05T18:12:39.427Z,1.20
2018-11-05T18:15:09.614Z,1.20
2018-11-05T18:17:44.116Z,1.20
2018-11-05T18:20:16.548Z,1.03
2018-11-05T18:22:55.208Z,1.27
2018-11-05T18:25:29.602Z,1.23
2018-11-05T18:28:01.983Z,1.30
2018-11-05T18:30:32.925Z,1.80
2018-11-05T18:33:01.705Z,1.73
2018-11-05T18:35:31.455Z,0.87
2018-11-05T18:38:00.340Z,0.97
2018-11-05T18:40:30.237Z,0.90
2018-11-05T18:42:59.039Z,1.10
2018-11-05T18:45:27.650Z,0.90
2018-11-05T18:47:56.332Z,1.03
2018-11-05T18:50:25.312Z,0.97
2018-11-05T18:52:54.020Z,1.30
2018-11-05T18:55:23.163Z,1.63
2018-11-05T18:57:51.792Z,1.80
2018-11-05T19:00:24.509Z,1.97
2018-11-05T19:02:53.978Z,1.60
2018-11-05T19:05:23.820Z,1.40
2018-11-05T19:07:52.930Z,1.40
2018-11-05T19:10:21.784Z,1.20
2018-11-05T19:12:51.543Z,1.50
2018-11-05T19:15:20.641Z,1.80
2018-11-05T19:17:52.248Z,2.43
2018-11-05T19:20:20.945Z,3.07
2018-11-05T19:22:49.683Z,3.37
2018-11-05T19:25:18.659Z,3.23
2018-11-05T19:27:47.308Z,2.37
2018-11-05T19:30:19.345Z,2.83
2018-11-05T19:32:48.082Z,3.47
2018-11-05T19:35:16.805Z,3.57
2018-11-05T19:37:45.532Z,3.70
2018-11-05T19:40:15.224Z,3.23
2018-11-05T19:42:46.660Z,3.17
2018-11-05T19:45:16.939Z,2.73
2018-11-05T19:47:45.793Z,3.00
2018-11-05T19:50:15.940Z,2.87
2018-11-05T19:52:45.523Z,3.10
2018-11-05T19:55:17.369Z,3.43
2018-11-05T19:57:46.994Z,3.17
2018-11-05T20:00:21.842Z,2.10
2018-11-05T20:02:50.697Z,2.50
2018-11-05T20:05:19.475Z,2.73
2018-11-05T20:07:48.633Z,3.37
2018-11-05T20:10:17.301Z,3.17
2018-11-05T20:12:46.365Z,2.33
2018-11-05T20:15:15.090Z,2.40
2018-11-05T20:17:44.572Z,3.30
2018-11-05T20:20:14.601Z,2.67
2018-11-05T20:22:43.303Z,2.43
2018-11-05T20:25:12.277Z,1.70
2018-11-05T20:27:41.329Z,2.33
2018-11-05T20:30:12.517Z,2.07
2018-11-05T20:32:41.736Z,2.13
2018-11-05T20:35:10.068Z,2.23
2018-11-05T20:37:38.961Z,2.47
2018-11-05T20:40:10.247Z,2.37
2018-11-05T20:42:38.781Z,1.83
2018-11-05T20:45:07.456Z,3.37
2018-11-05T20:47:36.216Z,2.20
2018-11-05T20:50:05.606Z,2.07
2018-11-05T20:52:34.303Z,1.57
2018-11-05T20:55:02.961Z,2.00
2018-11-05T20:57:31.754Z,2.00
2018-11-05T21:00:00.411Z,1.93
2018-11-05T21:02:29.203Z,1.60
2018-11-05T21:04:57.847Z,1.60
2018-11-05T21:07:26.777Z,2.10
2018-11-05T21:09:55.443Z,2.20
2018-11-05T21:12:24.106Z,1.50
2018-11-05T21:14:52.792Z,2.00
2018-11-05T21:17:21.454Z,1.87
2018-11-05T21:19:50.115Z,1.63
2018-11-05T21:22:18.822Z,1.77
2018-11-05T21:24:47.429Z,1.80
2018-11-05T21:27:16.060Z,1.83
2018-11-05T21:29:44.737Z,2.00
2018-11-05T21:32:13.773Z,1.73
2018-11-05T21:34:42.451Z,1.70
2018-11-05T21:37:11.128Z,2.40
2018-11-05T21:39:39.810Z,1.67
2018-11-05T21:42:08.440Z,2.20
2018-11-05T21:44:37.340Z,1.83
2018-11-05T21:47:06.053Z,2.00
2018-11-05T21:49:34.732Z,2.00
2018-11-05T21:52:03.376Z,1.87
2018-11-05T21:54:32.350Z,1.70
2018-11-05T21:57:00.991Z,1.50
2018-11-05T21:59:29.624Z,2.30
2018-11-05T22:01:58.946Z,1.77
2018-11-05T22:04:27.616Z,1.70
2018-11-05T22:06:56.249Z,2.33
2018-11-05T22:09:24.909Z,1.83
2018-11-05T22:11:53.635Z,2.07
2018-11-05T22:14:22.305Z,2.77
2018-11-05T22:16:50.945Z,2.03
2018-11-05T22:19:19.735Z,2.70
2018-11-05T22:21:48.407Z,2.10
2018-11-05T22:24:17.280Z,2.23
2018-11-05T22:26:45.912Z,2.30
2018-11-05T22:29:14.680Z,2.60
2018-11-05T22:31:44.108Z,1.70
2018-11-05T22:34:12.768Z,2.10
2018-11-05T22:36:42.345Z,2.10
2018-11-05T22:39:11.072Z,2.90
2018-11-05T22:41:39.892Z,2.07
2018-11-05T22:44:08.720Z,2.57
2018-11-05T22:46:37.482Z,2.40
2018-11-05T22:49:06.199Z,1.90
2018-11-05T22:51:34.964Z,2.17
2018-11-05T22:54:03.612Z,2.30
2018-11-05T22:56:32.353Z,2.50
2018-11-05T22:59:00.987Z,2.77
2018-11-05T23:01:34.904Z,2.57
2018-11-05T23:04:03.632Z,2.70
2018-11-05T23:06:33.057Z,3.00
2018-11-05T23:09:01.749Z,2.73
2018-11-05T23:11:30.384Z,2.27
2018-11-05T23:13:59.011Z,2.23
2018-11-05T23:16:27.717Z,2.37
2018-11-05T23:18:56.386Z,3.17
2018-11-05T23:21:25.115Z,2.17
2018-11-05T23:23:53.781Z,2.83
2018-11-05T23:26:23.415Z,2.23
2018-11-05T23:28:52.197Z,2.43
2018-11-05T23:31:20.940Z,2.20
2018-11-05T23:33:49.570Z,2.30
2018-11-05T23:36:18.308Z,3.10
2018-11-05T23:38:46.983Z,2.20
2018-11-05T23:41:15.612Z,2.37
2018-11-05T23:43:44.245Z,2.60
2018-11-05T23:46:12.908Z,2.90
2018-11-05T23:48:41.622Z,2.83
2018-11-05T23:51:10.485Z,2.47
2018-11-05T23:53:39.277Z,2.57
2018-11-05T23:56:07.890Z,3.27
2018-11-05T23:58:36.516Z,2.23
